Time;durP1;ratioP1;P1;durP2;ratioP2;P2;SDS_P1;SDS_P2;PMS_P1;PMS_P2;Temp;Humidity;BMP_temperature;BMP_pressure;BME280_temperature;BME280_humidity;BME280_pressure;Samples;Min_cycle;Max_cycle;Signal;HPM_P1;HPM_P2
2023/10/17 00:00:58;;;;;;;3.00;1.17;;;;;;;;;;5071834;28;20213;-73
2023/10/17 00:03:25;;;;;;;1.90;1.50;;;;;;;;;;5071575;28;20211;-73
2023/10/17 00:05:54;;;;;;;1.50;1.40;;;;;;;;;;5065861;28;20202;-72
2023/10/17 00:08:22;;;;;;;4.73;1.33;;;;;;;;;;5074209;28;20210;-73
2023/10/17 00:10:49;;;;;;;1.80;1.20;;;;;;;;;;5068898;28;20215;-67
2023/10/17 00:13:38;;;;;;;2.43;1.20;;;;;;;;;;5071378;28;20195;-66
2023/10/17 00:16:09;;;;;;;2.53;1.30;;;;;;;;;;5070630;28;20242;-66
2023/10/17 00:18:36;;;;;;;2.67;1.27;;;;;;;;;;5064749;28;20233;-67
2023/10/17 00:21:10;;;;;;;2.00;1.10;;;;;;;;;;5070256;28;20203;-66
2023/10/17 00:23:39;;;;;;;2.27;1.37;;;;;;;;;;5066551;28;20233;-66
2023/10/17 00:26:08;;;;;;;2.13;1.43;;;;;;;;;;5072872;28;20225;-66
2023/10/17 00:28:38;;;;;;;1.23;1.13;;;;;;;;;;5075377;28;20203;-66
2023/10/17 00:31:06;;;;;;;1.93;1.03;;;;;;;;;;5069935;28;20301;-66
2023/10/17 00:33:37;;;;;;;1.77;1.30;;;;;;;;;;5070335;28;20254;-66
2023/10/17 00:36:06;;;;;;;2.87;1.10;;;;;;;;;;5068642;28;20245;-67
2023/10/17 00:38:37;;;;;;;1.30;1.20;;;;;;;;;;5076883;28;20283;-66
2023/10/17 00:41:05;;;;;;;1.73;1.40;;;;;;;;;;5066228;28;20206;-66
2023/10/17 00:43:35;;;;;;;2.27;1.30;;;;;;;;;;5070720;28;20206;-67
2023/10/17 00:46:07;;;;;;;1.67;1.20;;;;;;;;;;5063850;28;20205;-66
2023/10/17 00:48:35;;;;;;;2.27;1.10;;;;;;;;;;5065509;28;20216;-67
2023/10/17 00:51:07;;;;;;;2.90;1.40;;;;;;;;;;5059313;28;20225;-66
2023/10/17 00:53:34;;;;;;;1.57;1.30;;;;;;;;;;5069237;28;20297;-66
2023/10/17 00:56:02;;;;;;;2.80;1.37;;;;;;;;;;5072490;28;20194;-66
2023/10/17 00:58:29;;;;;;;1.90;1.40;;;;;;;;;;5071773;28;20210;-67
2023/10/17 01:01:09;;;;;;;2.03;1.27;;;;;;;;;;5070530;28;20207;-66
2023/10/17 01:03:41;;;;;;;2.70;1.63;;;;;;;;;;5063405;28;20260;-66
2023/10/17 01:06:13;;;;;;;1.97;1.10;;;;;;;;;;5067051;28;20205;-66
2023/10/17 01:08:44;;;;;;;2.40;1.30;;;;;;;;;;5064131;28;20226;-66
2023/10/17 01:11:15;;;;;;;2.10;1.43;;;;;;;;;;5070773;28;20208;-66
2023/10/17 01:13:42;;;;;;;1.53;1.17;;;;;;;;;;5068478;28;20210;-67
2023/10/17 01:16:10;;;;;;;2.20;1.30;;;;;;;;;;5068310;28;20271;-66
2023/10/17 01:18:39;;;;;;;1.60;1.40;;;;;;;;;;5071967;28;20210;-66
2023/10/17 01:21:06;;;;;;;1.57;1.40;;;;;;;;;;5070178;28;20210;-72
2023/10/17 01:23:33;;;;;;;1.90;1.30;;;;;;;;;;5068759;28;20207;-73
2023/10/17 01:26:08;;;;;;;2.43;1.20;;;;;;;;;;5068119;28;20305;-73
2023/10/17 01:28:35;;;;;;;1.53;1.07;;;;;;;;;;5065593;28;20221;-72
2023/10/17 01:31:03;;;;;;;1.60;1.40;;;;;;;;;;5066491;28;20209;-73
2023/10/17 01:33:31;;;;;;;2.80;1.13;;;;;;;;;;5067101;28;20239;-73
2023/10/17 01:35:59;;;;;;;2.77;1.20;;;;;;;;;;5063603;28;20206;-73
2023/10/17 01:38:28;;;;;;;2.87;1.60;;;;;;;;;;5067553;28;20209;-73
2023/10/17 01:40:59;;;;;;;2.27;1.50;;;;;;;;;;5066824;28;20207;-73
2023/10/17 01:43:35;;;;;;;1.40;1.10;;;;;;;;;;5066468;28;20244;-73
2023/10/17 01:46:05;;;;;;;1.77;1.40;;;;;;;;;;5062786;28;20229;-73
2023/10/17 01:48:32;;;;;;;2.27;1.20;;;;;;;;;;5063542;28;20203;-73
2023/10/17 01:51:05;;;;;;;1.80;1.20;;;;;;;;;;5065889;28;20205;-72
2023/10/17 01:53:33;;;;;;;2.37;1.20;;;;;;;;;;5062627;28;20203;-72
2023/10/17 01:56:06;;;;;;;1.77;1.30;;;;;;;;;;5066837;28;20535;-72
2023/10/17 01:58:37;;;;;;;1.93;1.30;;;;;;;;;;5063136;28;20252;-73
2023/10/17 02:01:10;;;;;;;1.50;1.30;;;;;;;;;;5068816;28;20218;-73
2023/10/17 02:03:38;;;;;;;2.50;1.30;;;;;;;;;;5068218;28;20217;-73
2023/10/17 02:06:13;;;;;;;2.57;1.50;;;;;;;;;;5066467;28;20219;-73
2023/10/17 02:08:41;;;;;;;2.50;1.30;;;;;;;;;;5064896;28;20202;-73
2023/10/17 02:11:12;;;;;;;1.70;1.57;;;;;;;;;;5067483;28;20206;-73
2023/10/17 02:13:42;;;;;;;1.37;1.27;;;;;;;;;;5067352;28;20203;-74
2023/10/17 02:16:10;;;;;;;2.70;1.30;;;;;;;;;;5075165;28;20199;-74
2023/10/17 02:18:38;;;;;;;4.83;1.53;;;;;;;;;;5065884;28;20206;-74
2023/10/17 02:21:06;;;;;;;2.43;1.30;;;;;;;;;;5060929;28;20252;-74
2023/10/17 02:23:42;;;;;;;3.13;1.40;;;;;;;;;;5064124;28;20307;-73
2023/10/17 02:26:11;;;;;;;3.00;1.37;;;;;;;;;;5068437;28;20236;-72
2023/10/17 02:28:46;;;;;;;2.13;1.10;;;;;;;;;;5063584;28;20203;-74
2023/10/17 02:31:15;;;;;;;1.93;1.53;;;;;;;;;;5064463;28;20380;-67
2023/10/17 02:33:43;;;;;;;2.87;1.50;;;;;;;;;;5065972;28;20239;-67
2023/10/17 02:36:13;;;;;;;3.17;1.57;;;;;;;;;;5066054;28;20206;-68
2023/10/17 02:38:41;;;;;;;1.90;1.53;;;;;;;;;;5064288;28;20217;-68
2023/10/17 02:41:13;;;;;;;3.20;1.60;;;;;;;;;;5065168;28;20199;-67
2023/10/17 02:43:41;;;;;;;2.20;1.20;;;;;;;;;;5066153;28;20210;-67
2023/10/17 02:46:08;;;;;;;1.73;1.30;;;;;;;;;;5064353;28;20222;-67
2023/10/17 02:48:40;;;;;;;1.77;1.30;;;;;;;;;;5057598;28;20289;-67
2023/10/17 02:51:30;;;;;;;1.87;1.23;;;;;;;;;;5069044;28;20210;-67
2023/10/17 02:53:58;;;;;;;1.73;1.20;;;;;;;;;;5063039;28;20237;-67
2023/10/17 02:56:25;;;;;;;1.67;1.40;;;;;;;;;;5064463;28;20198;-67
2023/10/17 02:58:59;;;;;;;1.17;1.10;;;;;;;;;;5072310;28;20203;-68
2023/10/17 03:01:27;;;;;;;4.90;1.50;;;;;;;;;;5073152;28;20199;-67
2023/10/17 03:03:56;;;;;;;2.13;1.50;;;;;;;;;;5066075;28;20206;-67
2023/10/17 03:06:23;;;;;;;2.27;1.50;;;;;;;;;;5071108;28;20214;-67
2023/10/17 03:08:51;;;;;;;1.80;1.40;;;;;;;;;;5071222;28;20460;-67
2023/10/17 03:11:35;;;;;;;1.40;1.30;;;;;;;;;;5064782;28;20203;-67
2023/10/17 03:14:10;;;;;;;2.10;1.30;;;;;;;;;;5066560;28;20281;-66
2023/10/17 03:16:40;;;;;;;1.63;1.30;;;;;;;;;;5067472;28;20202;-67
2023/10/17 03:19:12;;;;;;;3.60;1.77;;;;;;;;;;5068313;28;20202;-67
2023/10/17 03:21:43;;;;;;;1.57;1.30;;;;;;;;;;5066457;28;20230;-67
2023/10/17 03:24:10;;;;;;;1.37;1.27;;;;;;;;;;5071880;28;20203;-67
2023/10/17 03:26:40;;;;;;;2.30;1.10;;;;;;;;;;5071336;28;20223;-67
2023/10/17 03:29:14;;;;;;;1.73;1.20;;;;;;;;;;5076761;28;20217;-67
2023/10/17 03:31:42;;;;;;;1.87;1.43;;;;;;;;;;5070196;28;20191;-67
2023/10/17 03:34:12;;;;;;;2.20;1.33;;;;;;;;;;5069945;28;20238;-67
2023/10/17 03:36:49;;;;;;;1.53;1.30;;;;;;;;;;5072214;28;20256;-67
2023/10/17 03:39:21;;;;;;;3.57;1.30;;;;;;;;;;5068380;28;20206;-67
2023/10/17 03:41:49;;;;;;;1.50;1.40;;;;;;;;;;5069210;28;20199;-74
2023/10/17 03:44:22;;;;;;;2.03;1.33;;;;;;;;;;5074748;28;20209;-74
2023/10/17 03:46:49;;;;;;;1.40;1.30;;;;;;;;;;5069539;28;20207;-74
2023/10/17 03:49:19;;;;;;;2.07;1.40;;;;;;;;;;5073057;28;20209;-74
2023/10/17 03:51:52;;;;;;;1.07;1.07;;;;;;;;;;5076060;28;20199;-73
2023/10/17 03:54:22;;;;;;;1.93;1.23;;;;;;;;;;5067642;28;20249;-74
2023/10/17 03:56:55;;;;;;;2.37;1.27;;;;;;;;;;5065900;28;20194;-73
2023/10/17 03:59:37;;;;;;;1.37;1.20;;;;;;;;;;5074743;28;20238;-74
2023/10/17 04:02:06;;;;;;;1.20;1.00;;;;;;;;;;5075478;28;20206;-74
2023/10/17 04:04:36;;;;;;;2.43;1.60;;;;;;;;;;5070677;28;20211;-74
2023/10/17 04:07:06;;;;;;;3.13;1.40;;;;;;;;;;5072765;28;20206;-74
2023/10/17 04:09:38;;;;;;;1.60;1.30;;;;;;;;;;5071299;28;20207;-75
2023/10/17 04:12:08;;;;;;;2.07;1.30;;;;;;;;;;5074225;28;20198;-74
2023/10/17 04:14:50;;;;;;;1.37;1.27;;;;;;;;;;5070724;28;20209;-72
2023/10/17 04:17:23;;;;;;;2.60;1.33;;;;;;;;;;5069314;28;20199;-73
2023/10/17 04:19:58;;;;;;;1.90;1.43;;;;;;;;;;5067643;28;20210;-73
2023/10/17 04:22:29;;;;;;;1.50;1.40;;;;;;;;;;5073107;28;20212;-73
2023/10/17 04:25:00;;;;;;;1.53;1.30;;;;;;;;;;5069677;28;20230;-73
2023/10/17 04:27:31;;;;;;;2.93;1.47;;;;;;;;;;5068800;28;20209;-73
2023/10/17 04:29:58;;;;;;;1.73;1.47;;;;;;;;;;5068713;28;20214;-73
2023/10/17 04:32:28;;;;;;;1.50;1.37;;;;;;;;;;5065334;28;20195;-74
2023/10/17 04:34:57;;;;;;;1.50;1.23;;;;;;;;;;5063627;28;20238;-72
2023/10/17 04:37:32;;;;;;;3.03;1.50;;;;;;;;;;5067659;28;20209;-73
2023/10/17 04:42:56;;;;;;;2.80;1.50;;;;;;;;;;5066732;28;20207;-73
2023/10/17 04:45:24;;;;;;;4.70;1.20;;;;;;;;;;5068175;28;20226;-74
2023/10/17 04:48:10;;;;;;;1.70;1.50;;;;;;;;;;5063383;28;20281;-74
2023/10/17 04:50:44;;;;;;;1.60;1.50;;;;;;;;;;5071356;28;20213;-74
2023/10/17 04:53:19;;;;;;;2.03;1.30;;;;;;;;;;5069501;28;20211;-74
2023/10/17 04:56:09;;;;;;;1.70;1.50;;;;;;;;;;5062632;28;20202;-74
2023/10/17 04:58:42;;;;;;;2.73;1.53;;;;;;;;;;5067921;28;20199;-74
2023/10/17 05:01:33;;;;;;;2.77;1.50;;;;;;;;;;5057998;28;20203;-74
2023/10/17 05:04:02;;;;;;;1.47;1.30;;;;;;;;;;5059167;28;20202;-74
2023/10/17 05:07:07;;;;;;;2.60;1.23;;;;;;;;;;5061417;28;20474;-74
2023/10/17 06:18:38;;;;;;;2.43;1.80;;;;;;;;;;4990308;28;20252;-74
2023/10/17 06:21:18;;;;;;;2.33;1.70;;;;;;;;;;5058423;28;20209;-74
2023/10/17 06:26:58;;;;;;;2.57;1.77;;;;;;;;;;5058745;28;20226;-74
2023/10/17 06:32:48;;;;;;;1.47;1.37;;;;;;;;;;5067644;28;20210;-74
2023/10/17 06:35:13;;;;;;;5.40;3.30;;;;;;;;;;5061328;28;20229;-74
2023/10/17 06:37:43;;;;;;;13.80;7.77;;;;;;;;;;5064169;28;20203;-73
2023/10/17 06:40:15;;;;;;;8.67;5.43;;;;;;;;;;5053557;28;20561;-73
2023/10/17 06:42:48;;;;;;;8.53;5.93;;;;;;;;;;5063226;28;20468;-73
2023/10/17 06:45:18;;;;;;;2.87;2.40;;;;;;;;;;5067291;28;20294;-74
2023/10/17 06:47:48;;;;;;;2.67;2.07;;;;;;;;;;5047928;28;20314;-74
2023/10/17 06:51:15;;;;;;;3.17;1.60;;;;;;;;;;5071049;28;20199;-74
2023/10/17 06:53:04;;;;;;;2.13;1.90;;;;;;;;;;5065557;28;20205;-74
2023/10/17 06:55:38;;;;;;;1.70;1.60;;;;;;;;;;5077047;28;20220;-74
2023/10/17 06:58:10;;;;;;;2.63;1.77;;;;;;;;;;5074152;28;20252;-73
2023/10/17 07:00:49;;;;;;;2.07;1.87;;;;;;;;;;5075725;28;20195;-74
2023/10/17 07:03:24;;;;;;;2.57;1.50;;;;;;;;;;5075210;28;20252;-74
2023/10/17 07:05:52;;;;;;;1.70;1.60;;;;;;;;;;5076841;28;20261;-73
2023/10/17 07:08:20;;;;;;;2.77;1.70;;;;;;;;;;5070804;28;20205;-74
2023/10/17 07:10:59;;;;;;;2.00;1.60;;;;;;;;;;5073973;28;20225;-68
2023/10/17 07:13:49;;;;;;;1.60;1.50;;;;;;;;;;5077614;28;20207;-68
2023/10/17 07:16:24;;;;;;;1.60;1.50;;;;;;;;;;5080070;28;20205;-68
2023/10/17 07:18:52;;;;;;;2.60;1.60;;;;;;;;;;5071382;28;20203;-67
2023/10/17 07:21:23;;;;;;;2.87;1.90;;;;;;;;;;5077035;28;20207;-67
2023/10/17 07:23:53;;;;;;;1.87;1.47;;;;;;;;;;5074427;28;20205;-68
2023/10/17 07:29:22;;;;;;;2.57;1.30;;;;;;;;;;5067339;28;20206;-68
2023/10/17 07:32:09;;;;;;;1.87;1.40;;;;;;;;;;5072841;28;20204;-67
2023/10/17 07:34:38;;;;;;;1.87;1.40;;;;;;;;;;5072461;28;20249;-67
2023/10/17 07:37:22;;;;;;;1.93;1.83;;;;;;;;;;5067494;28;20203;-67
2023/10/17 07:40:15;;;;;;;2.00;1.60;;;;;;;;;;5066677;28;20356;-67
2023/10/17 07:42:44;;;;;;;1.60;1.50;;;;;;;;;;5060082;28;20199;-67
2023/10/17 07:45:15;;;;;;;2.30;1.43;;;;;;;;;;5073095;28;20203;-68
2023/10/17 07:47:43;;;;;;;1.50;1.37;;;;;;;;;;5070630;28;20273;-66
2023/10/17 07:50:13;;;;;;;1.90;1.50;;;;;;;;;;5074248;28;20215;-67
2023/10/17 07:52:43;;;;;;;1.30;1.20;;;;;;;;;;5069962;28;20221;-67
2023/10/17 07:55:19;;;;;;;1.30;1.20;;;;;;;;;;5077650;28;20211;-67
2023/10/17 07:57:51;;;;;;;1.50;1.40;;;;;;;;;;5072357;28;20237;-67
2023/10/17 08:00:33;;;;;;;2.57;1.50;;;;;;;;;;5078136;28;20298;-67
2023/10/17 08:06:20;;;;;;;1.50;1.40;;;;;;;;;;5032563;28;20227;-66
2023/10/17 08:08:50;;;;;;;1.70;1.60;;;;;;;;;;5061803;28;20206;-68
2023/10/17 08:11:26;;;;;;;1.73;1.20;;;;;;;;;;5062322;28;20206;-67
2023/10/17 08:13:56;;;;;;;2.03;1.40;;;;;;;;;;5075390;28;20230;-67
2023/10/17 08:16:28;;;;;;;3.30;1.30;;;;;;;;;;5069215;28;20198;-68
2023/10/17 08:19:12;;;;;;;1.63;1.50;;;;;;;;;;5066702;28;20202;-68
2023/10/17 08:21:48;;;;;;;2.70;1.40;;;;;;;;;;5070239;28;20195;-73
2023/10/17 08:24:25;;;;;;;1.60;1.50;;;;;;;;;;5061783;28;20213;-74
2023/10/17 08:27:13;;;;;;;2.73;1.80;;;;;;;;;;5065898;28;20229;-73
2023/10/17 08:29:42;;;;;;;3.03;2.10;;;;;;;;;;5067721;28;20275;-73
2023/10/17 08:32:38;;;;;;;2.87;1.70;;;;;;;;;;5073650;28;20289;-73
2023/10/17 08:35:10;;;;;;;2.07;1.70;;;;;;;;;;5067564;28;20239;-73
2023/10/17 08:37:43;;;;;;;2.57;1.70;;;;;;;;;;5059892;28;20294;-73
2023/10/17 08:40:39;;;;;;;3.63;1.80;;;;;;;;;;5072819;28;20210;-73
2023/10/17 08:43:10;;;;;;;2.27;1.60;;;;;;;;;;5074934;28;20198;-72
2023/10/17 08:45:39;;;;;;;2.30;1.83;;;;;;;;;;5070563;28;20205;-72
2023/10/17 08:48:09;;;;;;;2.27;1.80;;;;;;;;;;5074366;28;20194;-73
2023/10/17 08:50:38;;;;;;;2.20;1.40;;;;;;;;;;5071516;28;20199;-72
2023/10/17 08:53:07;;;;;;;2.27;1.57;;;;;;;;;;5064411;28;20514;-73
2023/10/17 08:55:39;;;;;;;2.97;1.83;;;;;;;;;;5069039;28;20226;-72
2023/10/17 08:58:07;;;;;;;4.13;3.73;;;;;;;;;;5078857;28;20202;-72
2023/10/17 09:00:55;;;;;;;3.90;2.57;;;;;;;;;;5069401;28;20209;-72
2023/10/17 09:03:23;;;;;;;6.03;2.23;;;;;;;;;;5069591;28;20289;-74
2023/10/17 09:06:06;;;;;;;3.47;2.30;;;;;;;;;;5074572;28;20266;-72
2023/10/17 09:08:49;;;;;;;2.70;2.07;;;;;;;;;;5069573;28;20227;-73
2023/10/17 09:11:29;;;;;;;2.17;1.97;;;;;;;;;;5067355;28;20241;-71
2023/10/17 09:14:15;;;;;;;2.57;2.00;;;;;;;;;;5068468;28;20209;-71
2023/10/17 09:16:47;;;;;;;2.07;1.90;;;;;;;;;;5062084;28;20330;-71
2023/10/17 09:19:14;;;;;;;1.93;1.60;;;;;;;;;;5066355;28;20206;-73
2023/10/17 09:21:47;;;;;;;3.00;2.03;;;;;;;;;;5068747;28;20202;-73
2023/10/17 09:24:36;;;;;;;2.63;2.27;;;;;;;;;;5065800;28;20202;-72
2023/10/17 09:27:12;;;;;;;3.77;2.10;;;;;;;;;;5067430;28;20221;-72
2023/10/17 09:29:43;;;;;;;2.33;1.97;;;;;;;;;;5067587;28;20226;-75
2023/10/17 09:32:10;;;;;;;2.97;1.83;;;;;;;;;;5056914;28;20199;-68
2023/10/17 09:34:38;;;;;;;2.23;1.80;;;;;;;;;;5066052;28;20244;-68
2023/10/17 09:37:12;;;;;;;4.13;2.40;;;;;;;;;;5064274;28;20209;-69
2023/10/17 09:39:46;;;;;;;2.60;2.30;;;;;;;;;;5070156;28;20219;-67
2023/10/17 09:42:15;;;;;;;3.27;2.53;;;;;;;;;;5065152;28;20336;-67
2023/10/17 09:44:42;;;;;;;2.20;2.00;;;;;;;;;;5063103;28;20202;-67
2023/10/17 09:47:10;;;;;;;2.20;1.90;;;;;;;;;;5063998;28;20240;-66
2023/10/17 09:49:39;;;;;;;3.07;2.20;;;;;;;;;;5061348;28;20206;-66
2023/10/17 09:52:09;;;;;;;1.80;1.70;;;;;;;;;;5059154;28;20199;-69
2023/10/17 09:54:40;;;;;;;2.70;1.87;;;;;;;;;;5067044;28;20199;-68
2023/10/17 09:57:09;;;;;;;2.80;1.77;;;;;;;;;;5066109;28;20198;-66
2023/10/17 09:59:42;;;;;;;2.03;1.80;;;;;;;;;;5066868;28;20199;-67
2023/10/17 10:02:10;;;;;;;2.80;2.43;;;;;;;;;;5068035;28;20199;-67
2023/10/17 10:04:38;;;;;;;3.10;1.70;;;;;;;;;;5063927;28;20205;-67
2023/10/17 10:07:19;;;;;;;1.87;1.60;;;;;;;;;;5068796;28;20218;-70
2023/10/17 10:09:47;;;;;;;6.03;2.40;;;;;;;;;;5073606;28;20195;-68
2023/10/17 10:12:15;;;;;;;3.83;2.30;;;;;;;;;;5065662;28;20216;-70
2023/10/17 10:14:43;;;;;;;3.80;2.33;;;;;;;;;;5060966;28;20320;-68
2023/10/17 10:17:11;;;;;;;3.13;2.47;;;;;;;;;;5069959;28;20226;-66
2023/10/17 10:19:57;;;;;;;2.40;2.20;;;;;;;;;;5068604;28;20210;-67
2023/10/17 10:22:24;;;;;;;4.00;2.00;;;;;;;;;;5069620;28;20209;-68
2023/10/17 10:25:06;;;;;;;1.67;1.57;;;;;;;;;;5075415;28;20194;-66
2023/10/17 10:27:33;;;;;;;2.43;1.77;;;;;;;;;;5069079;28;20249;-67
2023/10/17 10:30:24;;;;;;;2.30;1.93;;;;;;;;;;5066621;28;20199;-68
2023/10/17 10:32:53;;;;;;;2.20;1.80;;;;;;;;;;5043840;28;20228;-66
2023/10/17 10:35:20;;;;;;;2.07;1.73;;;;;;;;;;5053407;28;20209;-66
2023/10/17 10:37:52;;;;;;;2.47;2.10;;;;;;;;;;5050827;28;20196;-66
2023/10/17 10:40:22;;;;;;;2.60;1.63;;;;;;;;;;5046648;28;20212;-67
2023/10/17 10:42:50;;;;;;;3.33;1.70;;;;;;;;;;5039442;28;20211;-71
2023/10/17 10:45:35;;;;;;;1.70;1.60;;;;;;;;;;5045877;28;20214;-70
2023/10/17 10:48:05;;;;;;;1.77;1.67;;;;;;;;;;5050834;28;20223;-71
2023/10/17 10:50:34;;;;;;;1.67;1.40;;;;;;;;;;5040322;28;20206;-73
2023/10/17 10:53:01;;;;;;;2.60;1.60;;;;;;;;;;5043649;28;20200;-71
2023/10/17 10:55:30;;;;;;;2.23;1.70;;;;;;;;;;5047184;28;20200;-72
2023/10/17 10:57:59;;;;;;;2.80;1.80;;;;;;;;;;5046115;28;20203;-73
2023/10/17 11:00:28;;;;;;;2.77;2.57;;;;;;;;;;5046409;28;20203;-72
2023/10/17 11:02:56;;;;;;;2.77;1.90;;;;;;;;;;5048791;28;20228;-72
2023/10/17 11:05:24;;;;;;;3.00;1.60;;;;;;;;;;5048088;28;20281;-72
2023/10/17 11:07:59;;;;;;;2.37;1.70;;;;;;;;;;5048954;28;20227;-72
2023/10/17 11:10:27;;;;;;;2.50;1.80;;;;;;;;;;5044832;28;20209;-73
2023/10/17 11:12:55;;;;;;;2.70;1.73;;;;;;;;;;5049043;28;20273;-74
2023/10/17 11:15:26;;;;;;;1.60;1.50;;;;;;;;;;5052385;28;20215;-73
2023/10/17 11:18:00;;;;;;;2.07;1.60;;;;;;;;;;5048415;28;20636;-70
2023/10/17 11:20:29;;;;;;;3.27;2.70;;;;;;;;;;5049127;28;20229;-72
2023/10/17 11:22:57;;;;;;;2.97;2.47;;;;;;;;;;5044231;28;20196;-72
2023/10/17 11:25:27;;;;;;;4.37;2.83;;;;;;;;;;5043650;28;20207;-73
2023/10/17 11:27:56;;;;;;;9.10;4.63;;;;;;;;;;5048290;28;20230;-71
2023/10/17 11:30:32;;;;;;;3.10;2.77;;;;;;;;;;5048628;28;22072;-71
2023/10/17 11:33:04;;;;;;;4.13;2.43;;;;;;;;;;5045736;28;20260;-70
2023/10/17 11:35:34;;;;;;;2.63;2.00;;;;;;;;;;5070187;28;20266;-71
2023/10/17 11:38:01;;;;;;;3.70;2.60;;;;;;;;;;5063869;28;20283;-74
2023/10/17 11:40:42;;;;;;;2.33;2.10;;;;;;;;;;5073555;28;20209;-72
2023/10/17 11:43:16;;;;;;;3.23;2.50;;;;;;;;;;5069380;28;20199;-72
2023/10/17 11:45:44;;;;;;;3.50;2.90;;;;;;;;;;5063197;28;20248;-72
2023/10/17 11:48:26;;;;;;;2.37;2.17;;;;;;;;;;5061574;28;20229;-71
2023/10/17 11:51:05;;;;;;;3.20;2.30;;;;;;;;;;5058761;28;20202;-70
2023/10/17 11:53:33;;;;;;;2.67;2.20;;;;;;;;;;5068291;28;20195;-72
2023/10/17 11:56:01;;;;;;;2.40;2.20;;;;;;;;;;5070372;28;20206;-71
2023/10/17 11:58:29;;;;;;;6.33;4.77;;;;;;;;;;5068420;28;20191;-71
2023/10/17 12:00:57;;;;;;;2.37;2.17;;;;;;;;;;5066801;28;20284;-68
2023/10/17 12:03:26;;;;;;;3.23;2.70;;;;;;;;;;5071205;28;20206;-65
2023/10/17 12:05:54;;;;;;;1.97;1.70;;;;;;;;;;5069516;28;20218;-65
2023/10/17 12:08:25;;;;;;;3.00;1.67;;;;;;;;;;5068175;28;20249;-66
2023/10/17 12:10:53;;;;;;;2.07;1.90;;;;;;;;;;5073537;28;20210;-67
2023/10/17 12:13:20;;;;;;;2.67;2.30;;;;;;;;;;5066249;28;20216;-66
2023/10/17 12:15:47;;;;;;;3.80;2.20;;;;;;;;;;5075055;28;20230;-65
2023/10/17 12:18:14;;;;;;;1.90;1.70;;;;;;;;;;5074040;28;20225;-66
2023/10/17 12:20:42;;;;;;;2.53;1.60;;;;;;;;;;5071754;28;20253;-66
2023/10/17 12:23:11;;;;;;;2.73;1.80;;;;;;;;;;5064884;28;20206;-66
2023/10/17 12:25:42;;;;;;;1.70;1.60;;;;;;;;;;5067805;28;20294;-65
2023/10/17 12:28:09;;;;;;;2.97;1.60;;;;;;;;;;5067138;28;20293;-65
2023/10/17 12:30:39;;;;;;;2.87;1.93;;;;;;;;;;5064739;28;20202;-64
2023/10/17 12:33:08;;;;;;;2.00;1.80;;;;;;;;;;5066496;28;20199;-65
2023/10/17 12:35:37;;;;;;;1.70;1.60;;;;;;;;;;5070376;28;20242;-64
2023/10/17 12:38:14;;;;;;;2.07;1.87;;;;;;;;;;5082648;28;20386;-65
2023/10/17 12:40:42;;;;;;;3.33;2.93;;;;;;;;;;5067542;28;20203;-65
2023/10/17 12:43:11;;;;;;;2.47;2.17;;;;;;;;;;5072791;28;20200;-65
2023/10/17 12:45:38;;;;;;;3.07;1.80;;;;;;;;;;5073066;28;20202;-65
2023/10/17 12:48:07;;;;;;;3.10;1.80;;;;;;;;;;5070761;28;20210;-64
2023/10/17 12:50:35;;;;;;;4.30;3.10;;;;;;;;;;5074666;28;20199;-66
2023/10/17 12:53:02;;;;;;;1.87;1.77;;;;;;;;;;5064526;28;20208;-65
2023/10/17 12:55:29;;;;;;;6.77;2.60;;;;;;;;;;5077024;28;20238;-66
2023/10/17 12:58:00;;;;;;;4.70;3.03;;;;;;;;;;5074416;28;20251;-68
2023/10/17 13:00:27;;;;;;;3.00;2.20;;;;;;;;;;5077634;28;20211;-66
2023/10/17 13:02:55;;;;;;;3.13;2.07;;;;;;;;;;5081003;28;20217;-67
2023/10/17 13:05:22;;;;;;;2.20;2.00;;;;;;;;;;5067625;28;20222;-67
2023/10/17 13:07:50;;;;;;;1.80;1.70;;;;;;;;;;5064453;28;20219;-66
2023/10/17 13:10:19;;;;;;;1.80;1.70;;;;;;;;;;5070720;28;20199;-66
2023/10/17 13:12:46;;;;;;;2.33;1.80;;;;;;;;;;5073126;28;20215;-66
2023/10/17 13:15:16;;;;;;;2.10;1.73;;;;;;;;;;5067317;28;20194;-68
2023/10/17 13:17:43;;;;;;;2.17;1.97;;;;;;;;;;5069782;28;20206;-66
2023/10/17 13:20:13;;;;;;;2.33;2.03;;;;;;;;;;5078605;28;20201;-68
2023/10/17 13:22:46;;;;;;;2.20;1.50;;;;;;;;;;5079931;28;20210;-65
2023/10/17 13:25:13;;;;;;;2.57;1.80;;;;;;;;;;5071681;28;20202;-66
2023/10/17 13:27:41;;;;;;;4.03;2.77;;;;;;;;;;5071661;28;20250;-67
2023/10/17 13:30:09;;;;;;;3.83;2.20;;;;;;;;;;5073440;28;20204;-70
2023/10/17 13:32:37;;;;;;;4.03;2.70;;;;;;;;;;5069680;28;20203;-65
2023/10/17 13:35:06;;;;;;;3.57;3.13;;;;;;;;;;5067717;28;20245;-65
2023/10/17 13:37:34;;;;;;;5.40;4.27;;;;;;;;;;5068457;28;20198;-64
2023/10/17 13:40:02;;;;;;;2.70;2.50;;;;;;;;;;5066687;28;20214;-65
2023/10/17 13:42:30;;;;;;;3.90;3.40;;;;;;;;;;5071202;28;20241;-64
2023/10/17 13:44:59;;;;;;;3.97;1.80;;;;;;;;;;5065123;28;20210;-66
2023/10/17 13:47:26;;;;;;;3.33;1.70;;;;;;;;;;5068803;28;20289;-65
2023/10/17 13:49:55;;;;;;;2.00;1.70;;;;;;;;;;5068379;28;20199;-64
2023/10/17 13:52:22;;;;;;;1.87;1.70;;;;;;;;;;5063805;28;20194;-65
2023/10/17 13:54:49;;;;;;;2.63;2.00;;;;;;;;;;5069146;28;20289;-66
2023/10/17 13:57:17;;;;;;;2.00;1.80;;;;;;;;;;5065695;28;20214;-67
2023/10/17 13:59:47;;;;;;;3.13;1.98;;;;;;;;;;5067272;28;20281;-66
2023/10/17 14:02:17;;;;;;;3.92;2.50;;;;;;;;;;5070693;28;20203;-66
2023/10/17 14:04:45;;;;;;;3.10;2.15;;;;;;;;;;5066173;28;20214;-67
2023/10/17 14:07:14;;;;;;;3.13;2.00;;;;;;;;;;5069754;28;20195;-65
2023/10/17 14:09:41;;;;;;;3.03;1.80;;;;;;;;;;5064753;28;20230;-65
2023/10/17 14:12:09;;;;;;;2.23;1.77;;;;;;;;;;5066513;28;20210;-64
2023/10/17 14:14:36;;;;;;;3.10;2.43;;;;;;;;;;5060165;28;20199;-66
2023/10/17 14:17:04;;;;;;;5.33;1.70;;;;;;;;;;5068429;28;20205;-65
2023/10/17 14:19:40;;;;;;;3.53;2.78;;;;;;;;;;5071688;28;20268;-65
2023/10/17 14:22:20;;;;;;;2.73;2.53;;;;;;;;;;5066662;28;20203;-66
2023/10/17 14:25:02;;;;;;;3.50;2.60;;;;;;;;;;5067897;28;20263;-65
2023/10/17 14:27:32;;;;;;;3.30;2.60;;;;;;;;;;5064668;28;20195;-66
2023/10/17 14:29:59;;;;;;;3.20;1.80;;;;;;;;;;5065576;28;20203;-67
2023/10/17 14:32:27;;;;;;;2.03;1.77;;;;;;;;;;5061577;28;20207;-67
2023/10/17 14:34:56;;;;;;;3.90;2.35;;;;;;;;;;5066501;28;20246;-67
2023/10/17 14:37:24;;;;;;;2.58;2.00;;;;;;;;;;5067440;28;20209;-67
2023/10/17 14:39:54;;;;;;;2.90;2.40;;;;;;;;;;5057465;28;20313;-68
2023/10/17 14:42:21;;;;;;;5.23;3.07;;;;;;;;;;5054459;28;20202;-66
2023/10/17 14:44:49;;;;;;;4.25;1.95;;;;;;;;;;5057040;28;20201;-65
2023/10/17 14:47:18;;;;;;;4.17;1.80;;;;;;;;;;5065755;28;20202;-67
2023/10/17 14:49:46;;;;;;;2.63;1.50;;;;;;;;;;5066172;28;20218;-66
2023/10/17 14:52:13;;;;;;;1.67;1.52;;;;;;;;;;5059860;28;20229;-66
2023/10/17 14:54:40;;;;;;;2.33;1.40;;;;;;;;;;5064222;28;20203;-67
2023/10/17 14:57:09;;;;;;;1.77;1.63;;;;;;;;;;5060935;28;20199;-66
2023/10/17 14:59:38;;;;;;;2.22;1.50;;;;;;;;;;5063883;28;20199;-67
2023/10/17 15:02:05;;;;;;;2.25;1.80;;;;;;;;;;5060040;28;20207;-66
2023/10/17 15:04:33;;;;;;;3.10;2.03;;;;;;;;;;5061919;28;20207;-67
2023/10/17 15:07:01;;;;;;;4.35;2.17;;;;;;;;;;5061260;28;20275;-68
2023/10/17 15:09:28;;;;;;;3.17;1.85;;;;;;;;;;5068583;28;20571;-67
2023/10/17 15:11:55;;;;;;;2.77;1.77;;;;;;;;;;5067844;28;20205;-67
2023/10/17 15:14:23;;;;;;;2.63;1.80;;;;;;;;;;5064806;28;20210;-67
2023/10/17 15:16:51;;;;;;;1.90;1.60;;;;;;;;;;5064856;28;20234;-67
2023/10/17 15:19:18;;;;;;;1.97;1.70;;;;;;;;;;5065938;28;20297;-67
2023/10/17 15:21:45;;;;;;;2.93;1.70;;;;;;;;;;5067782;28;20369;-67
2023/10/17 15:24:13;;;;;;;2.10;1.67;;;;;;;;;;5069722;28;20209;-66
2023/10/17 15:26:40;;;;;;;2.97;1.70;;;;;;;;;;5064943;28;20226;-67
2023/10/17 15:29:08;;;;;;;2.50;1.70;;;;;;;;;;5074583;28;20219;-66
2023/10/17 15:31:36;;;;;;;2.33;1.50;;;;;;;;;;5071201;28;20207;-67
2023/10/17 15:34:04;;;;;;;1.40;1.30;;;;;;;;;;5069356;28;20230;-68
2023/10/17 15:36:31;;;;;;;3.23;1.93;;;;;;;;;;5074621;28;20236;-67
2023/10/17 15:39:00;;;;;;;3.13;1.60;;;;;;;;;;5072677;28;20225;-67
2023/10/17 15:41:27;;;;;;;1.60;1.50;;;;;;;;;;5073551;28;20210;-67
2023/10/17 15:43:54;;;;;;;2.43;1.53;;;;;;;;;;5075063;28;20198;-67
2023/10/17 15:46:24;;;;;;;1.63;1.50;;;;;;;;;;5068762;28;20195;-66
2023/10/17 15:48:54;;;;;;;2.67;1.52;;;;;;;;;;5069866;28;20214;-66
2023/10/17 15:51:22;;;;;;;1.67;1.57;;;;;;;;;;5071958;28;20229;-67
2023/10/17 15:53:50;;;;;;;2.90;1.70;;;;;;;;;;5062216;28;20286;-68
2023/10/17 15:56:17;;;;;;;1.63;1.30;;;;;;;;;;5071938;28;20221;-66
2023/10/17 15:58:45;;;;;;;1.67;1.50;;;;;;;;;;5068293;28;20199;-68
2023/10/17 16:01:13;;;;;;;1.70;1.40;;;;;;;;;;5074295;28;20280;-67
2023/10/17 16:03:41;;;;;;;3.37;1.70;;;;;;;;;;5062849;28;20210;-70
2023/10/17 16:06:10;;;;;;;2.37;1.50;;;;;;;;;;5068237;28;20297;-70
2023/10/17 16:08:37;;;;;;;1.60;1.50;;;;;;;;;;5069590;28;20223;-67
2023/10/17 16:11:05;;;;;;;2.07;1.40;;;;;;;;;;5069010;28;20209;-67
2023/10/17 16:13:33;;;;;;;7.93;2.00;;;;;;;;;;5076017;28;20217;-72
2023/10/17 16:16:00;;;;;;;2.60;1.90;;;;;;;;;;5063105;28;20198;-68
2023/10/17 16:18:28;;;;;;;3.60;2.50;;;;;;;;;;5071837;28;20203;-69
2023/10/17 16:20:55;;;;;;;5.63;2.00;;;;;;;;;;5066591;28;20209;-68
2023/10/17 16:23:23;;;;;;;3.23;1.80;;;;;;;;;;5067129;28;20205;-69
2023/10/17 16:25:52;;;;;;;3.40;1.80;;;;;;;;;;5065422;28;20213;-68
2023/10/17 16:28:19;;;;;;;2.70;2.10;;;;;;;;;;5063592;28;20203;-66
2023/10/17 16:30:47;;;;;;;4.77;2.80;;;;;;;;;;5062444;28;20213;-67